Date,TemperatureHighF,TemperatureAvgF,TemperatureLowF,DewpointHighF,DewpointAvgF,DewpointLowF,HumidityHigh,HumidityAvg,HumidityLow,PressureMaxIn,PressureMinIn,WindSpeedMaxMPH,WindSpeedAvgMPH,GustSpeedMaxMPH,PrecipitationSumIn
2013-5-1,75.4,64.4,53.1,49.9,40.3,18.0,81,48,15,30.34,30.23,15,6,15,0.00
2013-5-2,77.7,64.5,50.9,40.0,27.0,10.7,59,29,10,30.38,30.25,14,5,14,0.00
2013-5-3,59.9,55.3,51.3,33.7,31.7,24.1,51,41,30,30.27,30.26,3,1,3,0.00
2013-5-4,57.9,50.5,43.2,41.3,36.0,32.9,69,58,46,30.26,30.22,13,4,13,0.00
2013-5-5,72.9,60.9,48.4,40.3,26.2,5.6,71,34,10,30.19,30.07,15,7,15,0.00
2013-5-6,68.5,59.0,46.2,54.2,45.7,35.2,84,62,47,30.14,30.05,14,8,14,0.00
2013-5-7,65.7,60.9,57.0,56.7,54.7,52.8,92,81,64,30.06,29.99,10,5,10,0.18
2013-5-8,74.7,62.6,52.7,57.6,50.7,43.2,97,69,35,30.03,29.92,8,3,8,0.26
2013-5-9,75.9,62.9,52.5,61.5,55.2,51.1,98,78,49,30.03,29.94,8,2,8,0.06
2013-5-10,66.4,61.4,59.4,56.8,54.3,53.2,80,77,70,30.04,29.99,5,2,5,0.01
2013-5-11,62.1,60.9,58.5,60.4,59.4,57.0,96,95,91,29.86,29.82,7,4,7,0.20
2013-5-12,53.8,49.1,41.4,49.7,30.2,16.7,92,51,24,30.08,29.87,21,9,21,0.07
2013-5-13,54.3,45.1,34.2,29.9,21.5,9.2,70,43,17,30.21,30.08,11,5,11,0.00
2013-5-14,61.5,48.1,30.0,36.9,31.0,25.4,91,56,31,30.22,29.96,9,2,11,0.00
2013-5-15,86.9,72.3,58.8,57.9,52.1,34.7,68,50,33,29.95,29.76,21,7,21,0.06
2013-5-16,80.6,70.5,61.9,63.5,56.4,41.5,95,66,25,30.02,29.83,10,4,10,0.28
2013-5-17,76.3,65.1,60.1,62.7,60.0,58.3,96,85,55,30.13,30.03,8,2,8,0.00
2013-5-18,68.7,61.1,57.7,54.4,52.5,49.8,86,74,53,30.17,30.12,4,2,4,0.00
2013-5-19,77.2,68.6,61.0,62.0,60.0,57.3,88,75,58,30.15,30.03,10,5,10,0.00
2013-5-20,87.4,74.6,62.1,65.9,62.7,58.8,90,69,43,30.08,29.97,13,3,13,0.00
2013-5-21,87.4,77.0,66.7,68.9,65.6,62.7,95,70,45,30.01,29.88,14,3,14,0.00
2013-5-22,87.4,73.6,65.8,65.1,61.9,58.9,90,69,41,29.95,29.83,20,4,20,0.74
2013-5-23,65.3,63.6,62.4,61.9,61.3,60.8,95,92,86,29.91,29.85,9,3,9,0.43
2013-5-24,55.2,46.2,42.4,53.5,42.1,35.3,97,87,60,30.21,29.91,11,6,11,0.33
2013-5-25,40.5,36.7,34.7,33.2,31.6,30.5,90,82,70,30.33,30.29,7,3,7,0.00
2013-5-26,68.0,52.8,35.4,38.8,33.3,25.1,90,54,20,30.31,30.22,14,3,14,0.00
2013-5-27,63.3,50.5,40.3,42.9,40.1,37.3,94,70,45,30.30,30.26,3,1,3,0.00
2013-5-28,79.7,66.5,55.2,68.7,59.3,48.9,98,79,52,30.14,30.03,7,3,7,0.14
2013-5-29,71.6,69.6,68.2,59.8,59.0,58.0,74,69,64,30.09,30.07,4,2,4,0.00
2013-5-30,85.1,70.8,62.8,65.3,61.4,58.9,87,74,48,30.22,30.14,5,2,5,0.00
2013-5-31,89.1,78.1,66.2,63.8,61.7,56.9,90,60,34,30.18,30.04,9,3,9,0.00